sensor_id;sensor_type;location;lat;lon;timestamp;temperature;humidity
12977;DHT22;6553;48.412;9.514;2023-03-21T00:01:13;19.10;57.90
12977;DHT22;6553;48.412;9.514;2023-03-21T00:03:40;19.00;57.80
12977;DHT22;6553;48.412;9.514;2023-03-21T00:06:10;19.10;57.90
12977;DHT22;6553;48.412;9.514;2023-03-21T00:08:38;19.10;57.90
12977;DHT22;6553;48.412;9.514;2023-03-21T00:11:07;19.10;57.90
12977;DHT22;6553;48.412;9.514;2023-03-21T00:13:35;19.00;57.90
12977;DHT22;6553;48.412;9.514;2023-03-21T00:16:08;19.10;57.90
12977;DHT22;6553;48.412;9.514;2023-03-21T00:18:40;19.00;57.90
12977;DHT22;6553;48.412;9.514;2023-03-21T00:21:21;19.00;57.90
12977;DHT22;6553;48.412;9.514;2023-03-21T00:23:53;19.10;57.90
12977;DHT22;6553;48.412;9.514;2023-03-21T00:26:19;19.00;57.80
12977;DHT22;6553;48.412;9.514;2023-03-21T00:28:47;19.10;57.90
12977;DHT22;6553;48.412;9.514;2023-03-21T00:31:13;19.10;57.90
12977;DHT22;6553;48.412;9.514;2023-03-21T00:33:41;19.00;57.80
12977;DHT22;6553;48.412;9.514;2023-03-21T00:36:08;19.10;58.00
12977;DHT22;6553;48.412;9.514;2023-03-21T00:38:34;19.10;57.90
12977;DHT22;6553;48.412;9.514;2023-03-21T00:41:05;19.00;57.70
12977;DHT22;6553;48.412;9.514;2023-03-21T00:43:32;19.00;57.70
12977;DHT22;6553;48.412;9.514;2023-03-21T00:46:00;19.00;57.80
12977;DHT22;6553;48.412;9.514;2023-03-21T00:48:26;19.00;57.80
12977;DHT22;6553;48.412;9.514;2023-03-21T00:50:54;19.00;57.80
12977;DHT22;6553;48.412;9.514;2023-03-21T00:53:21;19.10;57.90
12977;DHT22;6553;48.412;9.514;2023-03-21T00:55:48;19.00;57.80
12977;DHT22;6553;48.412;9.514;2023-03-21T00:58:15;19.00;57.80
12977;DHT22;6553;48.412;9.514;2023-03-21T01:00:42;19.00;57.70
12977;DHT22;6553;48.412;9.514;2023-03-21T01:03:12;19.00;57.70
12977;DHT22;6553;48.412;9.514;2023-03-21T01:05:41;19.00;57.80
12977;DHT22;6553;48.412;9.514;2023-03-21T01:08:27;19.00;57.80
12977;DHT22;6553;48.412;9.514;2023-03-21T01:10:54;19.00;57.70
12977;DHT22;6553;48.412;9.514;2023-03-21T01:13:22;19.00;57.70
12977;DHT22;6553;48.412;9.514;2023-03-21T01:15:52;19.00;57.70
12977;DHT22;6553;48.412;9.514;2023-03-21T01:18:22;19.00;57.70
12977;DHT22;6553;48.412;9.514;2023-03-21T01:20:52;19.00;57.70
12977;DHT22;6553;48.412;9.514;2023-03-21T01:23:20;19.00;57.70
12977;DHT22;6553;48.412;9.514;2023-03-21T01:25:47;19.00;57.70
12977;DHT22;6553;48.412;9.514;2023-03-21T01:28:14;19.00;57.70
12977;DHT22;6553;48.412;9.514;2023-03-21T01:30:48;19.00;57.70
12977;DHT22;6553;48.412;9.514;2023-03-21T01:33:16;19.00;57.70
12977;DHT22;6553;48.412;9.514;2023-03-21T01:35:43;19.00;57.70
12977;DHT22;6553;48.412;9.514;2023-03-21T01:38:09;19.00;57.70
12977;DHT22;6553;48.412;9.514;2023-03-21T01:40:37;19.00;57.70
12977;DHT22;6553;48.412;9.514;2023-03-21T01:43:24;19.00;57.70
12977;DHT22;6553;48.412;9.514;2023-03-21T01:49:24;19.00;57.60
12977;DHT22;6553;48.412;9.514;2023-03-21T01:52:10;19.00;57.70
12977;DHT22;6553;48.412;9.514;2023-03-21T01:54:41;19.00;57.70
12977;DHT22;6553;48.412;9.514;2023-03-21T01:57:22;19.00;57.60
12977;DHT22;6553;48.412;9.514;2023-03-21T01:59:58;19.00;57.70
12977;DHT22;6553;48.412;9.514;2023-03-21T02:02:45;19.00;57.60
12977;DHT22;6553;48.412;9.514;2023-03-21T02:06:51;19.00;57.60
12977;DHT22;6553;48.412;9.514;2023-03-21T02:09:01;19.00;57.60
12977;DHT22;6553;48.412;9.514;2023-03-21T02:11:34;19.00;57.60
12977;DHT22;6553;48.412;9.514;2023-03-21T02:14:02;19.00;57.60
12977;DHT22;6553;48.412;9.514;2023-03-21T02:16:42;19.00;57.70
12977;DHT22;6553;48.412;9.514;2023-03-21T02:28:24;19.00;57.60
12977;DHT22;6553;48.412;9.514;2023-03-21T02:37:21;19.00;57.60
12977;DHT22;6553;48.412;9.514;2023-03-21T02:40:08;19.00;57.50
12977;DHT22;6553;48.412;9.514;2023-03-21T02:42:58;19.00;57.50
12977;DHT22;6553;48.412;9.514;2023-03-21T02:45:55;19.00;57.50
12977;DHT22;6553;48.412;9.514;2023-03-21T02:48:33;19.00;57.60
12977;DHT22;6553;48.412;9.514;2023-03-21T02:51:05;19.00;57.50
12977;DHT22;6553;48.412;9.514;2023-03-21T02:53:37;19.00;57.60
12977;DHT22;6553;48.412;9.514;2023-03-21T02:56:07;19.00;57.60
12977;DHT22;6553;48.412;9.514;2023-03-21T02:58:37;19.00;57.50
12977;DHT22;6553;48.412;9.514;2023-03-21T03:01:05;19.00;57.50
12977;DHT22;6553;48.412;9.514;2023-03-21T03:03:37;19.00;57.50
12977;DHT22;6553;48.412;9.514;2023-03-21T03:06:26;19.00;57.60
12977;DHT22;6553;48.412;9.514;2023-03-21T03:12:02;19.00;57.50
12977;DHT22;6553;48.412;9.514;2023-03-21T03:17:48;19.00;57.50
12977;DHT22;6553;48.412;9.514;2023-03-21T03:20:37;19.00;57.50
12977;DHT22;6553;48.412;9.514;2023-03-21T03:23:28;19.00;57.50
12977;DHT22;6553;48.412;9.514;2023-03-21T03:28:40;19.00;57.50
12977;DHT22;6553;48.412;9.514;2023-03-21T03:31:19;19.00;57.50
12977;DHT22;6553;48.412;9.514;2023-03-21T03:33:55;19.00;57.50
12977;DHT22;6553;48.412;9.514;2023-03-21T03:36:30;19.00;57.50
12977;DHT22;6553;48.412;9.514;2023-03-21T03:39:09;19.00;57.40
12977;DHT22;6553;48.412;9.514;2023-03-21T03:41:44;19.00;57.50
12977;DHT22;6553;48.412;9.514;2023-03-21T03:44:16;19.00;57.50
12977;DHT22;6553;48.412;9.514;2023-03-21T03:47:06;19.00;57.50
12977;DHT22;6553;48.412;9.514;2023-03-21T03:49:40;19.00;57.50
12977;DHT22;6553;48.412;9.514;2023-03-21T03:52:23;19.00;57.50
12977;DHT22;6553;48.412;9.514;2023-03-21T03:55:06;19.00;57.40
12977;DHT22;6553;48.412;9.514;2023-03-21T03:57:39;19.00;57.40
12977;DHT22;6553;48.412;9.514;2023-03-21T04:00:06;19.00;57.40
12977;DHT22;6553;48.412;9.514;2023-03-21T04:02:43;19.00;57.40
12977;DHT22;6553;48.412;9.514;2023-03-21T04:05:12;19.00;57.50
12977;DHT22;6553;48.412;9.514;2023-03-21T04:07:38;19.00;57.40
12977;DHT22;6553;48.412;9.514;2023-03-21T04:10:04;19.00;57.40
12977;DHT22;6553;48.412;9.514;2023-03-21T04:12:37;19.00;57.40
12977;DHT22;6553;48.412;9.514;2023-03-21T04:15:20;19.00;57.40
12977;DHT22;6553;48.412;9.514;2023-03-21T04:17:54;19.00;57.40
12977;DHT22;6553;48.412;9.514;2023-03-21T04:20:20;19.00;57.40
12977;DHT22;6553;48.412;9.514;2023-03-21T04:22:47;19.00;57.30
12977;DHT22;6553;48.412;9.514;2023-03-21T04:25:13;19.00;57.30
12977;DHT22;6553;48.412;9.514;2023-03-21T04:27:40;19.00;57.30
12977;DHT22;6553;48.412;9.514;2023-03-21T04:30:28;19.00;57.30
12977;DHT22;6553;48.412;9.514;2023-03-21T04:33:02;19.00;57.30
12977;DHT22;6553;48.412;9.514;2023-03-21T04:35:31;19.00;57.40
12977;DHT22;6553;48.412;9.514;2023-03-21T04:38:00;19.00;57.30
12977;DHT22;6553;48.412;9.514;2023-03-21T04:40:26;19.00;57.40
12977;DHT22;6553;48.412;9.514;2023-03-21T04:42:54;19.00;57.30
12977;DHT22;6553;48.412;9.514;2023-03-21T04:45:20;19.00;57.30
12977;DHT22;6553;48.412;9.514;2023-03-21T04:47:46;19.00;57.30
12977;DHT22;6553;48.412;9.514;2023-03-21T04:50:12;19.00;57.30
12977;DHT22;6553;48.412;9.514;2023-03-21T04:52:39;19.00;57.30
12977;DHT22;6553;48.412;9.514;2023-03-21T04:55:05;19.00;57.30
12977;DHT22;6553;48.412;9.514;2023-03-21T04:57:37;19.00;57.30
12977;DHT22;6553;48.412;9.514;2023-03-21T05:00:05;19.00;57.20
12977;DHT22;6553;48.412;9.514;2023-03-21T05:02:37;19.00;57.30
12977;DHT22;6553;48.412;9.514;2023-03-21T05:05:05;19.00;57.30
12977;DHT22;6553;48.412;9.514;2023-03-21T05:07:36;19.00;57.30
12977;DHT22;6553;48.412;9.514;2023-03-21T05:10:07;19.00;57.20
12977;DHT22;6553;48.412;9.514;2023-03-21T05:12:38;19.00;57.20
12977;DHT22;6553;48.412;9.514;2023-03-21T05:15:05;19.00;57.30
12977;DHT22;6553;48.412;9.514;2023-03-21T05:17:31;19.00;57.30
12977;DHT22;6553;48.412;9.514;2023-03-21T05:19:57;19.00;57.20
12977;DHT22;6553;48.412;9.514;2023-03-21T05:22:24;19.00;57.30
12977;DHT22;6553;48.412;9.514;2023-03-21T05:24:52;19.00;57.30
12977;DHT22;6553;48.412;9.514;2023-03-21T05:27:46;19.00;57.30
12977;DHT22;6553;48.412;9.514;2023-03-21T05:30:20;19.00;57.20
12977;DHT22;6553;48.412;9.514;2023-03-21T05:32:49;19.00;57.20
12977;DHT22;6553;48.412;9.514;2023-03-21T05:35:15;19.00;57.80
12977;DHT22;6553;48.412;9.514;2023-03-21T05:37:41;19.00;57.10
12977;DHT22;6553;48.412;9.514;2023-03-21T05:40:08;19.00;57.20
12977;DHT22;6553;48.412;9.514;2023-03-21T05:42:37;19.00;57.10
12977;DHT22;6553;48.412;9.514;2023-03-21T05:45:12;19.00;57.20
12977;DHT22;6553;48.412;9.514;2023-03-21T05:47:38;19.00;57.40
12977;DHT22;6553;48.412;9.514;2023-03-21T05:50:05;19.00;57.30
12977;DHT22;6553;48.412;9.514;2023-03-21T05:52:32;19.00;57.40
12977;DHT22;6553;48.412;9.514;2023-03-21T05:55:00;19.10;57.50
12977;DHT22;6553;48.412;9.514;2023-03-21T05:57:26;19.10;57.40
12977;DHT22;6553;48.412;9.514;2023-03-21T06:00:02;19.00;57.40
12977;DHT22;6553;48.412;9.514;2023-03-21T06:02:40;19.00;57.30
12977;DHT22;6553;48.412;9.514;2023-03-21T06:05:17;19.00;57.40
12977;DHT22;6553;48.412;9.514;2023-03-21T06:07:43;19.00;57.30
12977;DHT22;6553;48.412;9.514;2023-03-21T06:10:10;19.00;57.40
12977;DHT22;6553;48.412;9.514;2023-03-21T06:12:38;19.00;57.40
12977;DHT22;6553;48.412;9.514;2023-03-21T06:15:24;19.00;57.90
12977;DHT22;6553;48.412;9.514;2023-03-21T06:17:56;19.00;57.30
12977;DHT22;6553;48.412;9.514;2023-03-21T06:20:22;19.10;57.40
12977;DHT22;6553;48.412;9.514;2023-03-21T06:22:52;19.00;57.30
12977;DHT22;6553;48.412;9.514;2023-03-21T06:25:17;19.00;57.30
12977;DHT22;6553;48.412;9.514;2023-03-21T06:27:43;19.00;57.30
12977;DHT22;6553;48.412;9.514;2023-03-21T06:30:10;19.10;57.40
12977;DHT22;6553;48.412;9.514;2023-03-21T06:32:50;19.00;57.30
12977;DHT22;6553;48.412;9.514;2023-03-21T06:35:17;19.00;57.30
12977;DHT22;6553;48.412;9.514;2023-03-21T06:37:43;19.00;57.30
12977;DHT22;6553;48.412;9.514;2023-03-21T06:40:10;19.10;57.40
12977;DHT22;6553;48.412;9.514;2023-03-21T06:42:36;19.00;57.30
12977;DHT22;6553;48.412;9.514;2023-03-21T06:45:08;19.00;57.20
12977;DHT22;6553;48.412;9.514;2023-03-21T06:47:35;19.00;57.20
12977;DHT22;6553;48.412;9.514;2023-03-21T06:50:03;19.00;57.20
12977;DHT22;6553;48.412;9.514;2023-03-21T06:52:38;19.00;57.20
12977;DHT22;6553;48.412;9.514;2023-03-21T06:55:04;19.10;57.30
12977;DHT22;6553;48.412;9.514;2023-03-21T06:57:31;19.10;57.20
12977;DHT22;6553;48.412;9.514;2023-03-21T06:59:57;19.10;57.20
12977;DHT22;6553;48.412;9.514;2023-03-21T07:02:23;19.00;57.20
12977;DHT22;6553;48.412;9.514;2023-03-21T07:04:59;19.10;57.20
12977;DHT22;6553;48.412;9.514;2023-03-21T07:07:27;19.10;57.30
12977;DHT22;6553;48.412;9.514;2023-03-21T07:09:54;19.10;57.20
12977;DHT22;6553;48.412;9.514;2023-03-21T07:12:21;19.10;57.10
12977;DHT22;6553;48.412;9.514;2023-03-21T07:15:03;19.20;57.10
12977;DHT22;6553;48.412;9.514;2023-03-21T07:17:32;19.20;57.10
12977;DHT22;6553;48.412;9.514;2023-03-21T07:19:59;19.20;57.00
12977;DHT22;6553;48.412;9.514;2023-03-21T07:22:25;19.20;57.00
12977;DHT22;6553;48.412;9.514;2023-03-21T07:24:50;19.20;56.90
12977;DHT22;6553;48.412;9.514;2023-03-21T07:27:17;19.30;57.00
12977;DHT22;6553;48.412;9.514;2023-03-21T07:29:44;19.30;57.00
12977;DHT22;6553;48.412;9.514;2023-03-21T07:32:12;19.30;57.00
12977;DHT22;6553;48.412;9.514;2023-03-21T07:34:38;19.30;57.00
12977;DHT22;6553;48.412;9.514;2023-03-21T07:37:03;19.40;57.00
12977;DHT22;6553;48.412;9.514;2023-03-21T07:39:31;19.40;57.00
12977;DHT22;6553;48.412;9.514;2023-03-21T07:41:59;19.40;56.90
12977;DHT22;6553;48.412;9.514;2023-03-21T07:44:33;19.40;56.90
12977;DHT22;6553;48.412;9.514;2023-03-21T07:47:03;19.40;57.00
12977;DHT22;6553;48.412;9.514;2023-03-21T07:49:30;19.40;57.00
12977;DHT22;6553;48.412;9.514;2023-03-21T07:51:56;19.40;56.90
12977;DHT22;6553;48.412;9.514;2023-03-21T07:54:22;19.40;56.90
12977;DHT22;6553;48.412;9.514;2023-03-21T07:56:48;19.40;56.80
12977;DHT22;6553;48.412;9.514;2023-03-21T07:59:13;19.40;56.80
12977;DHT22;6553;48.412;9.514;2023-03-21T08:01:39;19.50;56.90
12977;DHT22;6553;48.412;9.514;2023-03-21T08:04:05;19.50;56.80
12977;DHT22;6553;48.412;9.514;2023-03-21T08:06:31;19.50;56.80
12977;DHT22;6553;48.412;9.514;2023-03-21T08:08:57;19.50;56.80
12977;DHT22;6553;48.412;9.514;2023-03-21T08:11:23;19.50;56.70
12977;DHT22;6553;48.412;9.514;2023-03-21T08:13:49;19.50;56.70
12977;DHT22;6553;48.412;9.514;2023-03-21T08:16:16;19.50;56.70
12977;DHT22;6553;48.412;9.514;2023-03-21T08:18:42;19.50;56.60
12977;DHT22;6553;48.412;9.514;2023-03-21T08:21:08;19.60;56.70
12977;DHT22;6553;48.412;9.514;2023-03-21T08:23:34;19.60;56.60
12977;DHT22;6553;48.412;9.514;2023-03-21T08:26:00;19.60;56.60
12977;DHT22;6553;48.412;9.514;2023-03-21T08:28:26;19.60;56.60
12977;DHT22;6553;48.412;9.514;2023-03-21T08:30:52;19.60;56.60
12977;DHT22;6553;48.412;9.514;2023-03-21T08:33:18;19.60;56.60
12977;DHT22;6553;48.412;9.514;2023-03-21T08:35:45;19.50;56.60
12977;DHT22;6553;48.412;9.514;2023-03-21T08:38:11;19.50;56.60
12977;DHT22;6553;48.412;9.514;2023-03-21T08:40:37;19.50;56.60
12977;DHT22;6553;48.412;9.514;2023-03-21T08:43:03;19.50;56.60
12977;DHT22;6553;48.412;9.514;2023-03-21T08:45:29;19.50;56.50
12977;DHT22;6553;48.412;9.514;2023-03-21T08:47:55;19.50;56.60
12977;DHT22;6553;48.412;9.514;2023-03-21T08:50:22;19.50;56.60
12977;DHT22;6553;48.412;9.514;2023-03-21T08:52:50;19.50;56.60
12977;DHT22;6553;48.412;9.514;2023-03-21T08:55:17;19.50;56.60
12977;DHT22;6553;48.412;9.514;2023-03-21T08:57:44;19.50;56.50
12977;DHT22;6553;48.412;9.514;2023-03-21T09:00:12;19.50;56.40
12977;DHT22;6553;48.412;9.514;2023-03-21T09:02:46;19.50;56.50
12977;DHT22;6553;48.412;9.514;2023-03-21T09:05:17;19.50;56.40
12977;DHT22;6553;48.412;9.514;2023-03-21T09:07:44;19.50;56.40
12977;DHT22;6553;48.412;9.514;2023-03-21T09:10:13;19.50;56.30
12977;DHT22;6553;48.412;9.514;2023-03-21T09:12:43;19.50;56.40
12977;DHT22;6553;48.412;9.514;2023-03-21T09:15:11;19.50;56.40
12977;DHT22;6553;48.412;9.514;2023-03-21T09:17:38;19.50;56.40
12977;DHT22;6553;48.412;9.514;2023-03-21T09:20:09;19.50;56.40
12977;DHT22;6553;48.412;9.514;2023-03-21T09:22:37;19.50;56.40
12977;DHT22;6553;48.412;9.514;2023-03-21T09:25:03;19.50;56.40
12977;DHT22;6553;48.412;9.514;2023-03-21T09:27:32;19.50;56.40
12977;DHT22;6553;48.412;9.514;2023-03-21T09:29:59;19.50;56.40
12977;DHT22;6553;48.412;9.514;2023-03-21T09:32:25;19.50;56.40
12977;DHT22;6553;48.412;9.514;2023-03-21T09:34:51;19.50;56.40
12977;DHT22;6553;48.412;9.514;2023-03-21T09:37:20;19.50;56.40
12977;DHT22;6553;48.412;9.514;2023-03-21T09:39:45;19.50;56.30
12977;DHT22;6553;48.412;9.514;2023-03-21T09:48:38;19.50;56.30
12977;DHT22;6553;48.412;9.514;2023-03-21T09:51:16;19.50;56.30
12977;DHT22;6553;48.412;9.514;2023-03-21T09:53:46;19.50;56.30
12977;DHT22;6553;48.412;9.514;2023-03-21T09:56:16;19.50;56.30
12977;DHT22;6553;48.412;9.514;2023-03-21T09:58:55;19.50;56.30
12977;DHT22;6553;48.412;9.514;2023-03-21T10:01:26;19.50;56.30
12977;DHT22;6553;48.412;9.514;2023-03-21T10:04:00;19.50;56.20
12977;DHT22;6553;48.412;9.514;2023-03-21T10:06:29;19.50;56.10
12977;DHT22;6553;48.412;9.514;2023-03-21T10:09:02;19.50;56.20
12977;DHT22;6553;48.412;9.514;2023-03-21T10:11:46;19.50;56.20
12977;DHT22;6553;48.412;9.514;2023-03-21T10:17:28;19.50;56.30
12977;DHT22;6553;48.412;9.514;2023-03-21T10:20:17;19.50;56.20
12977;DHT22;6553;48.412;9.514;2023-03-21T10:22:48;19.50;56.00
12977;DHT22;6553;48.412;9.514;2023-03-21T10:25:19;19.50;56.00
12977;DHT22;6553;48.412;9.514;2023-03-21T10:27:49;19.50;56.00
12977;DHT22;6553;48.412;9.514;2023-03-21T10:33:13;19.50;56.10
12977;DHT22;6553;48.412;9.514;2023-03-21T10:35:44;19.50;56.10
12977;DHT22;6553;48.412;9.514;2023-03-21T10:38:16;19.50;56.10
12977;DHT22;6553;48.412;9.514;2023-03-21T10:40:44;19.50;55.90
12977;DHT22;6553;48.412;9.514;2023-03-21T10:43:31;19.50;56.00
12977;DHT22;6553;48.412;9.514;2023-03-21T10:46:18;19.50;55.90
12977;DHT22;6553;48.412;9.514;2023-03-21T10:48:52;19.50;55.80
12977;DHT22;6553;48.412;9.514;2023-03-21T10:51:20;19.60;55.90
12977;DHT22;6553;48.412;9.514;2023-03-21T10:54:19;19.50;55.90
12977;DHT22;6553;48.412;9.514;2023-03-21T10:56:57;19.60;56.20
12977;DHT22;6553;48.412;9.514;2023-03-21T10:59:35;19.50;56.00
12977;DHT22;6553;48.412;9.514;2023-03-21T11:02:05;19.50;55.80
12977;DHT22;6553;48.412;9.514;2023-03-21T11:04:36;19.50;55.80
12977;DHT22;6553;48.412;9.514;2023-03-21T11:07:04;19.50;55.70
12977;DHT22;6553;48.412;9.514;2023-03-21T11:09:48;19.50;55.60
12977;DHT22;6553;48.412;9.514;2023-03-21T11:18:14;19.60;56.00
12977;DHT22;6553;48.412;9.514;2023-03-21T11:20:50;19.50;55.60
12977;DHT22;6553;48.412;9.514;2023-03-21T11:23:16;19.60;55.70
12977;DHT22;6553;48.412;9.514;2023-03-21T11:25:42;19.50;55.60
12977;DHT22;6553;48.412;9.514;2023-03-21T11:28:13;19.60;55.70
12977;DHT22;6553;48.412;9.514;2023-03-21T11:30:51;19.60;55.70
12977;DHT22;6553;48.412;9.514;2023-03-21T11:33:24;19.60;55.70
12977;DHT22;6553;48.412;9.514;2023-03-21T11:36:04;19.60;55.70
12977;DHT22;6553;48.412;9.514;2023-03-21T11:38:37;19.60;55.70
12977;DHT22;6553;48.412;9.514;2023-03-21T11:41:05;19.60;55.80
12977;DHT22;6553;48.412;9.514;2023-03-21T11:43:35;19.60;55.70
12977;DHT22;6553;48.412;9.514;2023-03-21T11:46:12;19.60;55.70
12977;DHT22;6553;48.412;9.514;2023-03-21T11:48:47;19.60;55.70
12977;DHT22;6553;48.412;9.514;2023-03-21T11:51:21;19.60;55.70
12977;DHT22;6553;48.412;9.514;2023-03-21T11:54:34;19.60;55.70
12977;DHT22;6553;48.412;9.514;2023-03-21T12:00:24;19.60;55.70
12977;DHT22;6553;48.412;9.514;2023-03-21T12:05:55;19.60;55.60
12977;DHT22;6553;48.412;9.514;2023-03-21T12:09:25;19.60;55.60
12977;DHT22;6553;48.412;9.514;2023-03-21T12:12:14;19.60;55.80
12977;DHT22;6553;48.412;9.514;2023-03-21T12:15:12;19.60;55.70
12977;DHT22;6553;48.412;9.514;2023-03-21T12:17:56;19.60;55.70
12977;DHT22;6553;48.412;9.514;2023-03-21T12:21:04;19.60;55.70
12977;DHT22;6553;48.412;9.514;2023-03-21T12:26:25;19.60;55.60
12977;DHT22;6553;48.412;9.514;2023-03-21T12:31:27;19.60;55.60
12977;DHT22;6553;48.412;9.514;2023-03-21T12:45:47;19.60;55.60
12977;DHT22;6553;48.412;9.514;2023-03-21T12:48:21;19.60;55.50
12977;DHT22;6553;48.412;9.514;2023-03-21T12:50:55;19.60;55.50
12977;DHT22;6553;48.412;9.514;2023-03-21T12:56:25;19.60;55.60
12977;DHT22;6553;48.412;9.514;2023-03-21T12:59:07;19.60;55.40
12977;DHT22;6553;48.412;9.514;2023-03-21T13:01:43;19.60;55.20
12977;DHT22;6553;48.412;9.514;2023-03-21T13:04:46;19.60;55.40
12977;DHT22;6553;48.412;9.514;2023-03-21T13:07:22;19.60;55.40
12977;DHT22;6553;48.412;9.514;2023-03-21T13:09:50;19.60;55.70
12977;DHT22;6553;48.412;9.514;2023-03-21T13:18:36;19.60;55.20
12977;DHT22;6553;48.412;9.514;2023-03-21T13:29:58;19.60;55.20
12977;DHT22;6553;48.412;9.514;2023-03-21T13:32:40;19.60;55.20
12977;DHT22;6553;48.412;9.514;2023-03-21T13:35:22;19.60;55.20
12977;DHT22;6553;48.412;9.514;2023-03-21T13:38:14;19.60;55.50
12977;DHT22;6553;48.412;9.514;2023-03-21T13:40:50;19.60;55.40
12977;DHT22;6553;48.412;9.514;2023-03-21T13:43:32;19.60;55.10
12977;DHT22;6553;48.412;9.514;2023-03-21T13:56:57;19.60;55.40
12977;DHT22;6553;48.412;9.514;2023-03-21T13:59:42;19.60;55.10
12977;DHT22;6553;48.412;9.514;2023-03-21T14:04:39;19.60;55.00
12977;DHT22;6553;48.412;9.514;2023-03-21T14:07:10;19.60;55.10
12977;DHT22;6553;48.412;9.514;2023-03-21T14:09:41;19.60;55.00
12977;DHT22;6553;48.412;9.514;2023-03-21T14:12:16;19.60;55.00
12977;DHT22;6553;48.412;9.514;2023-03-21T14:14:53;19.60;55.10
12977;DHT22;6553;48.412;9.514;2023-03-21T14:17:32;19.60;55.20
12977;DHT22;6553;48.412;9.514;2023-03-21T14:20:04;19.60;55.10
12977;DHT22;6553;48.412;9.514;2023-03-21T14:22:38;19.60;55.10
12977;DHT22;6553;48.412;9.514;2023-03-21T14:25:10;19.60;55.20
12977;DHT22;6553;48.412;9.514;2023-03-21T14:27:47;19.60;55.80
12977;DHT22;6553;48.412;9.514;2023-03-21T14:30:34;19.60;55.00
12977;DHT22;6553;48.412;9.514;2023-03-21T14:33:35;19.60;55.00
12977;DHT22;6553;48.412;9.514;2023-03-21T14:36:16;19.70;55.30
12977;DHT22;6553;48.412;9.514;2023-03-21T14:41:32;19.60;55.00
12977;DHT22;6553;48.412;9.514;2023-03-21T14:44:21;19.70;55.00
12977;DHT22;6553;48.412;9.514;2023-03-21T14:47:04;19.60;54.80
12977;DHT22;6553;48.412;9.514;2023-03-21T14:49:33;19.60;55.00
12977;DHT22;6553;48.412;9.514;2023-03-21T14:52:03;19.70;55.20
12977;DHT22;6553;48.412;9.514;2023-03-21T14:54:32;19.60;55.10
12977;DHT22;6553;48.412;9.514;2023-03-21T14:57:01;19.60;55.10
12977;DHT22;6553;48.412;9.514;2023-03-21T14:59:38;19.60;55.10
12977;DHT22;6553;48.412;9.514;2023-03-21T15:02:18;19.60;55.10
12977;DHT22;6553;48.412;9.514;2023-03-21T15:04:57;19.60;55.20
12977;DHT22;6553;48.412;9.514;2023-03-21T15:07:32;19.60;55.00
12977;DHT22;6553;48.412;9.514;2023-03-21T15:10:14;19.60;55.10
12977;DHT22;6553;48.412;9.514;2023-03-21T15:15:45;19.60;55.50
12977;DHT22;6553;48.412;9.514;2023-03-21T15:18:15;19.60;55.50
12977;DHT22;6553;48.412;9.514;2023-03-21T15:20:45;19.60;55.20
12977;DHT22;6553;48.412;9.514;2023-03-21T15:23:28;19.60;55.40
12977;DHT22;6553;48.412;9.514;2023-03-21T15:25:57;19.60;55.30
12977;DHT22;6553;48.412;9.514;2023-03-21T15:28:26;19.60;55.20
12977;DHT22;6553;48.412;9.514;2023-03-21T15:30:52;19.60;55.20
12977;DHT22;6553;48.412;9.514;2023-03-21T15:33:19;19.60;55.20
12977;DHT22;6553;48.412;9.514;2023-03-21T15:35:52;19.60;55.30
12977;DHT22;6553;48.412;9.514;2023-03-21T15:41:33;19.60;55.50
12977;DHT22;6553;48.412;9.514;2023-03-21T15:46:41;19.60;55.70
12977;DHT22;6553;48.412;9.514;2023-03-21T15:52:10;19.60;55.40
12977;DHT22;6553;48.412;9.514;2023-03-21T15:54:46;19.60;55.30
12977;DHT22;6553;48.412;9.514;2023-03-21T15:57:26;19.60;55.30
12977;DHT22;6553;48.412;9.514;2023-03-21T16:00:19;19.60;55.70
12977;DHT22;6553;48.412;9.514;2023-03-21T16:02:50;19.60;55.60
12977;DHT22;6553;48.412;9.514;2023-03-21T16:05:35;19.60;55.50
12977;DHT22;6553;48.412;9.514;2023-03-21T16:10:30;19.60;55.40
12977;DHT22;6553;48.412;9.514;2023-03-21T16:13:03;19.60;55.40
12977;DHT22;6553;48.412;9.514;2023-03-21T16:15:31;19.60;55.50
12977;DHT22;6553;48.412;9.514;2023-03-21T16:18:00;19.60;55.50
12977;DHT22;6553;48.412;9.514;2023-03-21T16:20:33;19.60;55.50
12977;DHT22;6553;48.412;9.514;2023-03-21T16:23:02;19.60;55.40
12977;DHT22;6553;48.412;9.514;2023-03-21T16:25:29;19.60;55.50
12977;DHT22;6553;48.412;9.514;2023-03-21T16:27:55;19.60;55.50
12977;DHT22;6553;48.412;9.514;2023-03-21T16:30:21;19.60;55.50
12977;DHT22;6553;48.412;9.514;2023-03-21T16:32:49;19.60;55.50
12977;DHT22;6553;48.412;9.514;2023-03-21T16:35:15;19.60;55.50
12977;DHT22;6553;48.412;9.514;2023-03-21T16:37:41;19.60;55.50
12977;DHT22;6553;48.412;9.514;2023-03-21T16:40:35;19.60;55.50
12977;DHT22;6553;48.412;9.514;2023-03-21T16:43:03;19.60;55.50
12977;DHT22;6553;48.412;9.514;2023-03-21T16:45:29;19.60;55.50
12977;DHT22;6553;48.412;9.514;2023-03-21T16:47:57;19.60;55.60
12977;DHT22;6553;48.412;9.514;2023-03-21T16:50:30;19.50;55.50
12977;DHT22;6553;48.412;9.514;2023-03-21T16:52:58;19.50;55.50
12977;DHT22;6553;48.412;9.514;2023-03-21T16:55:26;19.60;55.60
12977;DHT22;6553;48.412;9.514;2023-03-21T16:57:53;19.50;55.50
12977;DHT22;6553;48.412;9.514;2023-03-21T17:00:23;19.50;55.50
12977;DHT22;6553;48.412;9.514;2023-03-21T17:02:53;19.50;55.50
12977;DHT22;6553;48.412;9.514;2023-03-21T17:05:25;19.50;55.50
12977;DHT22;6553;48.412;9.514;2023-03-21T17:07:53;19.50;55.50
12977;DHT22;6553;48.412;9.514;2023-03-21T17:10:25;19.50;56.00
12977;DHT22;6553;48.412;9.514;2023-03-21T17:12:52;19.50;55.50
12977;DHT22;6553;48.412;9.514;2023-03-21T17:15:19;19.50;55.50
12977;DHT22;6553;48.412;9.514;2023-03-21T17:17:46;19.50;55.60
12977;DHT22;6553;48.412;9.514;2023-03-21T17:20:23;19.50;55.50
12977;DHT22;6553;48.412;9.514;2023-03-21T17:22:50;19.50;55.60
12977;DHT22;6553;48.412;9.514;2023-03-21T17:25:17;19.50;55.60
12977;DHT22;6553;48.412;9.514;2023-03-21T17:27:44;19.50;55.60
12977;DHT22;6553;48.412;9.514;2023-03-21T17:32:50;19.50;55.50
12977;DHT22;6553;48.412;9.514;2023-03-21T17:35:18;19.50;55.60
12977;DHT22;6553;48.412;9.514;2023-03-21T17:37:44;19.50;55.60
12977;DHT22;6553;48.412;9.514;2023-03-21T17:40:17;19.50;55.60
12977;DHT22;6553;48.412;9.514;2023-03-21T17:42:46;19.50;55.60
12977;DHT22;6553;48.412;9.514;2023-03-21T17:45:13;19.50;55.60
12977;DHT22;6553;48.412;9.514;2023-03-21T17:47:39;19.50;55.60
12977;DHT22;6553;48.412;9.514;2023-03-21T17:50:21;19.40;55.50
12977;DHT22;6553;48.412;9.514;2023-03-21T17:52:52;19.50;55.60
12977;DHT22;6553;48.412;9.514;2023-03-21T17:55:20;19.50;55.60
12977;DHT22;6553;48.412;9.514;2023-03-21T17:57:47;19.50;55.60
12977;DHT22;6553;48.412;9.514;2023-03-21T18:00:20;19.40;55.50
12977;DHT22;6553;48.412;9.514;2023-03-21T18:02:50;19.40;55.50
12977;DHT22;6553;48.412;9.514;2023-03-21T18:05:17;19.40;55.50
12977;DHT22;6553;48.412;9.514;2023-03-21T18:07:45;19.40;55.50
12977;DHT22;6553;48.412;9.514;2023-03-21T18:10:18;19.40;55.50
12977;DHT22;6553;48.412;9.514;2023-03-21T18:12:46;19.50;55.60
12977;DHT22;6553;48.412;9.514;2023-03-21T18:15:13;19.50;55.60
12977;DHT22;6553;48.412;9.514;2023-03-21T18:17:40;19.40;55.50